Time;durP1;ratioP1;P1;durP2;ratioP2;P2;SDS_P1;SDS_P2;PMS_P1;PMS_P2;Temp;Humidity;BMP_temperature;BMP_pressure;BME280_temperature;BME280_humidity;BME280_pressure;Samples;Min_cycle;Max_cycle;Signal;HPM_P1;HPM_P2
2021/01/19 00:01:46;;;;;;;0.20;0.20;;;;;;;;;;5050044;28;20241;-66
2021/01/19 00:04:13;;;;;;;0.30;0.30;;;;;;;;;;5065710;28;20199;-67
2021/01/19 00:06:40;;;;;;;0.20;0.20;;;;;;;;;;5049630;28;20199;-67
2021/01/19 00:09:07;;;;;;;0.20;0.20;;;;;;;;;;5069088;28;20202;-67
2021/01/19 00:11:33;;;;;;;0.20;0.20;;;;;;;;;;5055738;28;20231;-67
2021/01/19 00:14:00;;;;;;;0.20;0.20;;;;;;;;;;5064689;28;20273;-67
2021/01/19 00:16:26;;;;;;;0.20;0.20;;;;;;;;;;5065016;28;20222;-67
2021/01/19 00:18:53;;;;;;;0.20;0.20;;;;;;;;;;5060766;28;20256;-66
2021/01/19 00:21:19;;;;;;;1.17;1.07;;;;;;;;;;5054831;28;20227;-67
2021/01/19 00:23:47;;;;;;;0.30;0.30;;;;;;;;;;5048018;28;20265;-67
2021/01/19 00:26:13;;;;;;;0.20;0.20;;;;;;;;;;5061439;28;20216;-67
2021/01/19 00:28:39;;;;;;;0.20;0.20;;;;;;;;;;5053147;28;20265;-67
2021/01/19 00:31:07;;;;;;;0.20;0.20;;;;;;;;;;5059193;28;20230;-67
2021/01/19 00:33:33;;;;;;;1.53;1.53;;;;;;;;;;5048386;28;20199;-67
2021/01/19 00:36:00;;;;;;;0.20;0.20;;;;;;;;;;5049948;28;20194;-67
2021/01/19 00:38:26;;;;;;;0.20;0.20;;;;;;;;;;5059081;28;20520;-67
2021/01/19 00:40:54;;;;;;;0.20;0.20;;;;;;;;;;5064549;28;20233;-67
2021/01/19 00:43:20;;;;;;;0.20;0.20;;;;;;;;;;5067428;28;20230;-68
2021/01/19 00:45:47;;;;;;;0.20;0.20;;;;;;;;;;5072092;28;20242;-67
2021/01/19 00:48:13;;;;;;;0.20;0.20;;;;;;;;;;5063216;28;20223;-67
2021/01/19 00:50:40;;;;;;;0.20;0.20;;;;;;;;;;5051494;28;20195;-67
2021/01/19 00:53:06;;;;;;;0.20;0.20;;;;;;;;;;5043812;28;20206;-68
2021/01/19 00:55:33;;;;;;;0.20;0.20;;;;;;;;;;5047208;28;20199;-66
2021/01/19 00:58:00;;;;;;;0.20;0.20;;;;;;;;;;5045710;28;20218;-67
2021/01/19 01:00:26;;;;;;;0.20;0.20;;;;;;;;;;5065487;28;20207;-68
2021/01/19 01:02:53;;;;;;;0.20;0.20;;;;;;;;;;5045120;28;20206;-68
2021/01/19 01:05:19;;;;;;;0.20;0.20;;;;;;;;;;5041709;28;20364;-67
2021/01/19 01:07:46;;;;;;;0.20;0.20;;;;;;;;;;5055805;28;20202;-66
2021/01/19 01:10:13;;;;;;;0.20;0.20;;;;;;;;;;5045794;28;20196;-67
2021/01/19 01:12:40;;;;;;;0.30;0.30;;;;;;;;;;5044075;28;20196;-66
2021/01/19 01:15:08;;;;;;;0.20;0.20;;;;;;;;;;5045493;28;20203;-67
2021/01/19 01:17:35;;;;;;;0.20;0.20;;;;;;;;;;5047296;28;20221;-66
2021/01/19 01:20:06;;;;;;;0.20;0.20;;;;;;;;;;5064546;28;20511;-67
2021/01/19 01:22:37;;;;;;;0.40;0.40;;;;;;;;;;5063043;28;20237;-66
2021/01/19 01:25:04;;;;;;;0.20;0.20;;;;;;;;;;5065824;28;20207;-67
2021/01/19 01:27:31;;;;;;;0.40;0.40;;;;;;;;;;5042349;28;20479;-67
2021/01/19 01:29:57;;;;;;;0.20;0.20;;;;;;;;;;5058108;28;20251;-67
2021/01/19 01:32:24;;;;;;;0.20;0.20;;;;;;;;;;5079665;28;20231;-67
2021/01/19 01:34:50;;;;;;;0.20;0.20;;;;;;;;;;5036433;28;20199;-68
2021/01/19 01:37:17;;;;;;;0.20;0.20;;;;;;;;;;5046647;28;20198;-67
2021/01/19 01:39:44;;;;;;;0.27;0.27;;;;;;;;;;5057492;28;20218;-66
2021/01/19 01:42:14;;;;;;;0.20;0.20;;;;;;;;;;5045217;28;20421;-66
2021/01/19 01:44:40;;;;;;;0.20;0.20;;;;;;;;;;5062728;28;20525;-67
2021/01/19 01:47:12;;;;;;;0.20;0.20;;;;;;;;;;5046497;28;20203;-66
2021/01/19 01:49:40;;;;;;;0.20;0.20;;;;;;;;;;5069713;28;20198;-67
2021/01/19 01:52:07;;;;;;;0.20;0.20;;;;;;;;;;5056404;28;20504;-67
2021/01/19 01:54:34;;;;;;;0.20;0.20;;;;;;;;;;5051477;28;20206;-68
2021/01/19 01:57:00;;;;;;;0.20;0.20;;;;;;;;;;5045908;28;20210;-67
2021/01/19 01:59:27;;;;;;;0.20;0.20;;;;;;;;;;5045780;28;20223;-66
2021/01/19 02:01:54;;;;;;;0.20;0.20;;;;;;;;;;5045076;28;20223;-66
2021/01/19 02:04:20;;;;;;;0.20;0.20;;;;;;;;;;5046617;28;20214;-66
2021/01/19 02:06:48;;;;;;;0.20;0.20;;;;;;;;;;5064430;28;20239;-66
2021/01/19 02:09:18;;;;;;;0.20;0.20;;;;;;;;;;5067857;28;20389;-67
2021/01/19 02:11:48;;;;;;;0.20;0.20;;;;;;;;;;5079995;28;20264;-67
2021/01/19 02:14:20;;;;;;;0.50;0.50;;;;;;;;;;5083760;28;20234;-66
2021/01/19 02:16:51;;;;;;;0.20;0.20;;;;;;;;;;5100152;28;20240;-66
2021/01/19 02:19:35;;;;;;;0.30;0.30;;;;;;;;;;5077443;28;20475;-66
2021/01/19 02:22:19;;;;;;;0.20;0.20;;;;;;;;;;5046524;28;20486;-66
2021/01/19 02:24:52;;;;;;;0.20;0.20;;;;;;;;;;5079567;28;20197;-66
2021/01/19 02:27:29;;;;;;;0.20;0.20;;;;;;;;;;5073177;28;20241;-66
2021/01/19 02:30:06;;;;;;;0.20;0.20;;;;;;;;;;5078149;28;20194;-66
2021/01/19 02:32:37;;;;;;;0.20;0.20;;;;;;;;;;5060462;28;20217;-66
2021/01/19 02:35:10;;;;;;;0.20;0.20;;;;;;;;;;5070532;28;20199;-66
2021/01/19 02:37:39;;;;;;;0.30;0.30;;;;;;;;;;5072765;28;20226;-66
2021/01/19 02:40:07;;;;;;;0.20;0.20;;;;;;;;;;5075426;28;20344;-66
2021/01/19 02:42:35;;;;;;;0.20;0.20;;;;;;;;;;5064727;28;20604;-66
2021/01/19 02:45:04;;;;;;;0.70;0.70;;;;;;;;;;5068014;28;20226;-67
2021/01/19 02:47:30;;;;;;;0.20;0.20;;;;;;;;;;5074315;28;20230;-66
2021/01/19 02:49:57;;;;;;;0.20;0.20;;;;;;;;;;5052785;28;20234;-67
2021/01/19 02:52:25;;;;;;;0.20;0.20;;;;;;;;;;5067378;28;20541;-67
2021/01/19 02:54:51;;;;;;;0.20;0.20;;;;;;;;;;5052699;28;20271;-67
2021/01/19 02:57:25;;;;;;;0.20;0.20;;;;;;;;;;5069611;28;20250;-67
2021/01/19 02:59:59;;;;;;;0.20;0.20;;;;;;;;;;5055507;28;20276;-67
2021/01/19 03:02:28;;;;;;;0.20;0.20;;;;;;;;;;5068295;28;20498;-67
2021/01/19 03:04:56;;;;;;;0.20;0.20;;;;;;;;;;5066065;28;20222;-66
2021/01/19 03:07:25;;;;;;;0.20;0.20;;;;;;;;;;5060286;28;20198;-67
2021/01/19 03:09:52;;;;;;;0.20;0.20;;;;;;;;;;5064311;28;20203;-67
2021/01/19 03:12:19;;;;;;;0.20;0.20;;;;;;;;;;5059431;28;20199;-66
2021/01/19 03:14:45;;;;;;;0.20;0.20;;;;;;;;;;5064056;28;20514;-66
2021/01/19 03:17:12;;;;;;;0.20;0.20;;;;;;;;;;5058208;28;20205;-67
2021/01/19 03:19:40;;;;;;;0.20;0.20;;;;;;;;;;5053856;28;20242;-67
2021/01/19 03:22:06;;;;;;;2.23;2.13;;;;;;;;;;5045781;28;20239;-66
2021/01/19 03:24:33;;;;;;;0.20;0.20;;;;;;;;;;5064862;28;20231;-67
2021/01/19 03:27:00;;;;;;;0.20;0.20;;;;;;;;;;5058825;28;20268;-66
2021/01/19 03:29:26;;;;;;;0.83;0.83;;;;;;;;;;5063033;28;20270;-67
2021/01/19 03:31:53;;;;;;;0.20;0.20;;;;;;;;;;5051272;28;20272;-66
2021/01/19 03:34:19;;;;;;;0.40;0.40;;;;;;;;;;5050798;28;20217;-67
2021/01/19 03:36:46;;;;;;;0.20;0.20;;;;;;;;;;5047920;28;20195;-66
2021/01/19 03:39:12;;;;;;;0.20;0.20;;;;;;;;;;5061105;28;20306;-66
2021/01/19 03:41:40;;;;;;;0.20;0.20;;;;;;;;;;5051528;28;20199;-67
2021/01/19 03:44:07;;;;;;;0.20;0.20;;;;;;;;;;5068076;28;20371;-66
2021/01/19 03:46:33;;;;;;;0.20;0.20;;;;;;;;;;5047939;28;20203;-66
2021/01/19 03:49:00;;;;;;;0.20;0.20;;;;;;;;;;5065260;28;20198;-66
2021/01/19 03:51:26;;;;;;;0.20;0.20;;;;;;;;;;5051202;28;20235;-66
2021/01/19 03:53:53;;;;;;;0.20;0.20;;;;;;;;;;5048914;28;20506;-70
2021/01/19 03:56:20;;;;;;;0.20;0.20;;;;;;;;;;5070120;28;20242;-67
2021/01/19 03:58:47;;;;;;;0.57;0.57;;;;;;;;;;5046105;28;20289;-67
2021/01/19 04:01:13;;;;;;;0.20;0.20;;;;;;;;;;5056608;28;20196;-65
2021/01/19 04:03:39;;;;;;;0.20;0.20;;;;;;;;;;5091773;28;20200;-66
2021/01/19 04:06:07;;;;;;;0.20;0.20;;;;;;;;;;5075109;28;20206;-66
2021/01/19 04:08:33;;;;;;;0.20;0.20;;;;;;;;;;5056727;28;20226;-66
2021/01/19 04:11:00;;;;;;;0.20;0.20;;;;;;;;;;5080481;28;20236;-67
2021/01/19 04:13:26;;;;;;;0.20;0.20;;;;;;;;;;5054535;28;20238;-66
2021/01/19 04:15:53;;;;;;;0.20;0.20;;;;;;;;;;5086627;28;20199;-65
2021/01/19 04:18:20;;;;;;;0.20;0.20;;;;;;;;;;5062655;28;20227;-65
2021/01/19 04:20:46;;;;;;;0.20;0.20;;;;;;;;;;5047130;28;20244;-66
2021/01/19 04:23:14;;;;;;;0.20;0.20;;;;;;;;;;5048544;28;20299;-65
2021/01/19 04:25:41;;;;;;;0.20;0.20;;;;;;;;;;5046780;28;20195;-65
2021/01/19 04:28:07;;;;;;;0.20;0.20;;;;;;;;;;5066010;28;20390;-66
2021/01/19 04:30:34;;;;;;;0.20;0.20;;;;;;;;;;5056638;28;20389;-66
2021/01/19 04:33:01;;;;;;;0.50;0.50;;;;;;;;;;5046153;28;20569;-67
2021/01/19 04:35:28;;;;;;;0.20;0.20;;;;;;;;;;5063733;28;20206;-66
2021/01/19 04:37:54;;;;;;;0.20;0.20;;;;;;;;;;5056364;28;20487;-67
2021/01/19 04:40:21;;;;;;;0.20;0.20;;;;;;;;;;5077117;28;20227;-66
2021/01/19 04:42:48;;;;;;;0.30;0.30;;;;;;;;;;5049314;28;20203;-66
2021/01/19 04:45:14;;;;;;;0.20;0.20;;;;;;;;;;5050702;28;20199;-66
2021/01/19 04:47:41;;;;;;;0.20;0.20;;;;;;;;;;5066087;28;20207;-65
2021/01/19 04:50:09;;;;;;;0.20;0.20;;;;;;;;;;5065500;28;20210;-65
2021/01/19 04:52:36;;;;;;;0.20;0.20;;;;;;;;;;5046517;28;20403;-66
2021/01/19 04:55:04;;;;;;;0.20;0.20;;;;;;;;;;5056736;28;20501;-66
2021/01/19 04:57:31;;;;;;;0.50;0.50;;;;;;;;;;5055007;28;20237;-67
2021/01/19 04:59:59;;;;;;;0.20;0.20;;;;;;;;;;5084729;28;20223;-66
2021/01/19 05:02:36;;;;;;;0.20;0.20;;;;;;;;;;5065083;28;20562;-66
2021/01/19 05:05:23;;;;;;;0.20;0.20;;;;;;;;;;5060051;28;20230;-66
2021/01/19 05:08:10;;;;;;;0.20;0.20;;;;;;;;;;5036053;28;20475;-66
2021/01/19 05:10:37;;;;;;;0.20;0.20;;;;;;;;;;5062822;28;20203;-65
2021/01/19 05:13:07;;;;;;;0.20;0.20;;;;;;;;;;5067270;28;20222;-66
2021/01/19 05:15:35;;;;;;;0.20;0.20;;;;;;;;;;5078578;28;20198;-66
2021/01/19 05:18:01;;;;;;;0.20;0.20;;;;;;;;;;5068039;28;20305;-66
2021/01/19 05:20:31;;;;;;;0.20;0.20;;;;;;;;;;5077166;28;20241;-67
2021/01/19 05:22:57;;;;;;;0.20;0.20;;;;;;;;;;5055399;28;20223;-66
2021/01/19 05:25:25;;;;;;;1.30;1.30;;;;;;;;;;5058322;28;20195;-67
2021/01/19 05:27:52;;;;;;;0.20;0.20;;;;;;;;;;5052450;28;20203;-67
2021/01/19 05:30:19;;;;;;;0.20;0.20;;;;;;;;;;5052438;28;20405;-66
2021/01/19 05:32:45;;;;;;;3.83;2.33;;;;;;;;;;5049767;28;20241;-66
2021/01/19 05:35:12;;;;;;;0.20;0.20;;;;;;;;;;5051930;28;20434;-66
2021/01/19 05:37:41;;;;;;;0.20;0.20;;;;;;;;;;5064364;28;20375;-66
2021/01/19 05:40:08;;;;;;;0.20;0.20;;;;;;;;;;5067007;28;20243;-66
2021/01/19 05:42:35;;;;;;;0.20;0.20;;;;;;;;;;5058928;28;20204;-65
2021/01/19 05:45:05;;;;;;;0.20;0.20;;;;;;;;;;5074207;28;20305;-65
2021/01/19 05:47:32;;;;;;;0.20;0.20;;;;;;;;;;5085915;28;20407;-66
2021/01/19 05:50:00;;;;;;;0.20;0.20;;;;;;;;;;5064819;28;20199;-66
2021/01/19 05:52:29;;;;;;;0.43;0.33;;;;;;;;;;5064258;28;20528;-65
2021/01/19 05:54:56;;;;;;;0.30;0.30;;;;;;;;;;5069532;28;20304;-65
2021/01/19 05:57:23;;;;;;;0.20;0.20;;;;;;;;;;5056058;28;20299;-65
2021/01/19 05:59:52;;;;;;;0.20;0.20;;;;;;;;;;5042889;28;20490;-65
2021/01/19 06:02:20;;;;;;;0.20;0.20;;;;;;;;;;5042433;28;20200;-65
2021/01/19 06:04:48;;;;;;;0.20;0.20;;;;;;;;;;5035508;28;20228;-65
2021/01/19 06:07:15;;;;;;;0.47;0.47;;;;;;;;;;5046649;28;20227;-65
2021/01/19 06:09:43;;;;;;;0.20;0.20;;;;;;;;;;5036101;28;20256;-66
2021/01/19 06:12:09;;;;;;;0.40;0.40;;;;;;;;;;5053233;28;20228;-66
2021/01/19 06:14:35;;;;;;;0.20;0.20;;;;;;;;;;5055188;28;20212;-65
2021/01/19 06:17:07;;;;;;;0.20;0.20;;;;;;;;;;5051433;28;20200;-65
2021/01/19 06:19:33;;;;;;;0.20;0.20;;;;;;;;;;5033926;28;20254;-65
2021/01/19 06:22:05;;;;;;;0.20;0.20;;;;;;;;;;5030171;28;20192;-65
2021/01/19 06:24:32;;;;;;;0.20;0.20;;;;;;;;;;5072975;28;20204;-67
2021/01/19 06:26:58;;;;;;;0.20;0.20;;;;;;;;;;5061689;28;20222;-65
2021/01/19 06:29:25;;;;;;;0.20;0.20;;;;;;;;;;5039189;28;20235;-65
2021/01/19 06:31:51;;;;;;;0.20;0.20;;;;;;;;;;5058537;28;20206;-65
2021/01/19 06:34:26;;;;;;;0.20;0.20;;;;;;;;;;5041081;28;20433;-66
2021/01/19 06:36:53;;;;;;;0.20;0.20;;;;;;;;;;5037277;28;20194;-66
2021/01/19 06:39:27;;;;;;;0.20;0.20;;;;;;;;;;5037383;28;20250;-65
2021/01/19 06:41:59;;;;;;;0.20;0.20;;;;;;;;;;5059189;28;20313;-66
2021/01/19 06:44:32;;;;;;;0.20;0.20;;;;;;;;;;5052073;28;20234;-68
2021/01/19 06:46:59;;;;;;;0.20;0.20;;;;;;;;;;5060215;28;20195;-67
2021/01/19 06:49:27;;;;;;;0.20;0.20;;;;;;;;;;5044487;28;20214;-66
2021/01/19 06:51:57;;;;;;;0.97;0.97;;;;;;;;;;5041694;28;20277;-66
2021/01/19 06:54:24;;;;;;;0.20;0.20;;;;;;;;;;5063107;28;20195;-65
2021/01/19 06:56:55;;;;;;;0.20;0.20;;;;;;;;;;5057876;28;20530;-66
2021/01/19 06:59:30;;;;;;;0.20;0.20;;;;;;;;;;5062629;28;20226;-66
2021/01/19 07:01:57;;;;;;;0.20;0.20;;;;;;;;;;5066362;28;20439;-66
2021/01/19 07:04:24;;;;;;;0.20;0.20;;;;;;;;;;5064859;28;20220;-66
2021/01/19 07:07:06;;;;;;;0.20;0.20;;;;;;;;;;5059239;28;20398;-66
2021/01/19 07:09:50;;;;;;;0.20;0.20;;;;;;;;;;5061989;28;20217;-67
2021/01/19 07:12:18;;;;;;;0.20;0.20;;;;;;;;;;5065761;28;20396;-67
2021/01/19 07:14:53;;;;;;;0.20;0.20;;;;;;;;;;5063790;28;20274;-67
2021/01/19 07:17:27;;;;;;;0.30;0.30;;;;;;;;;;5064437;28;20207;-66
2021/01/19 07:19:54;;;;;;;0.30;0.30;;;;;;;;;;5062468;28;20246;-67
2021/01/19 07:22:44;;;;;;;0.20;0.20;;;;;;;;;;5063273;28;20223;-67
2021/01/19 07:25:11;;;;;;;0.20;0.20;;;;;;;;;;5062882;28;20234;-67
2021/01/19 07:27:37;;;;;;;0.20;0.20;;;;;;;;;;5207738;23;20462;-72
2021/01/19 07:30:06;;;;;;;0.20;0.20;;;;;;;;;;5071466;28;20242;-72
2021/01/19 07:32:32;;;;;;;0.20;0.20;;;;;;;;;;5067982;28;20283;-73
2021/01/19 07:34:58;;;;;;;0.20;0.20;;;;;;;;;;5081095;28;20231;-72
2021/01/19 07:37:32;;;;;;;0.60;0.60;;;;;;;;;;5068381;28;20222;-72
2021/01/19 07:39:59;;;;;;;0.43;0.43;;;;;;;;;;5040473;28;20254;-73
2021/01/19 07:42:26;;;;;;;4.73;1.80;;;;;;;;;;5042744;28;20200;-72
2021/01/19 07:44:57;;;;;;;0.20;0.20;;;;;;;;;;5039399;28;20200;-72
2021/01/19 07:47:33;;;;;;;0.20;0.20;;;;;;;;;;5046500;28;20200;-72
2021/01/19 07:50:01;;;;;;;0.20;0.20;;;;;;;;;;5064913;28;20211;-72
2021/01/19 07:52:34;;;;;;;0.30;0.30;;;;;;;;;;5044849;28;20200;-72
2021/01/19 07:55:11;;;;;;;0.20;0.20;;;;;;;;;;5062606;28;20235;-72
2021/01/19 07:57:38;;;;;;;0.30;0.30;;;;;;;;;;5065931;28;20393;-72
2021/01/19 08:00:04;;;;;;;0.20;0.20;;;;;;;;;;5050582;28;20364;-73
2021/01/19 08:02:31;;;;;;;0.20;0.20;;;;;;;;;;5062018;28;20238;-73
2021/01/19 08:05:02;;;;;;;0.20;0.20;;;;;;;;;;5047303;28;20466;-72
2021/01/19 08:07:37;;;;;;;1.17;1.17;;;;;;;;;;5066904;28;20507;-74
2021/01/19 08:10:05;;;;;;;0.40;0.40;;;;;;;;;;5063892;28;20232;-77
2021/01/19 08:12:35;;;;;;;0.20;0.20;;;;;;;;;;5069370;28;20405;-75
2021/01/19 08:15:04;;;;;;;0.20;0.20;;;;;;;;;;5069024;28;20223;-76
2021/01/19 08:17:36;;;;;;;0.23;0.23;;;;;;;;;;5046222;28;20196;-75
2021/01/19 08:20:04;;;;;;;0.20;0.20;;;;;;;;;;5063055;28;20531;-74
2021/01/19 08:22:31;;;;;;;0.30;0.30;;;;;;;;;;5063674;28;20196;-75
2021/01/19 08:25:00;;;;;;;0.20;0.20;;;;;;;;;;5046798;28;20250;-74
2021/01/19 08:27:28;;;;;;;0.37;0.37;;;;;;;;;;5060616;28;20232;-74
2021/01/19 08:29:54;;;;;;;3.53;1.50;;;;;;;;;;5047096;28;20326;-75
2021/01/19 08:32:21;;;;;;;0.30;0.30;;;;;;;;;;5071795;28;20206;-75
2021/01/19 08:34:47;;;;;;;0.30;0.30;;;;;;;;;;5057692;28;20222;-75
2021/01/19 08:37:16;;;;;;;0.20;0.20;;;;;;;;;;5068235;28;20196;-75
2021/01/19 08:39:49;;;;;;;1.20;1.20;;;;;;;;;;5056722;28;20277;-74
2021/01/19 08:42:16;;;;;;;1.30;1.13;;;;;;;;;;5069006;28;20199;-75
2021/01/19 08:44:43;;;;;;;0.93;0.70;;;;;;;;;;5054226;28;20207;-74
2021/01/19 08:47:11;;;;;;;0.23;0.23;;;;;;;;;;5039615;28;20434;-77
2021/01/19 08:49:37;;;;;;;2.47;2.37;;;;;;;;;;5058855;28;20216;-74
2021/01/19 08:52:05;;;;;;;0.20;0.20;;;;;;;;;;5054553;28;20271;-74
2021/01/19 08:54:31;;;;;;;2.13;0.77;;;;;;;;;;5038939;28;20196;-74
2021/01/19 08:56:58;;;;;;;0.20;0.20;;;;;;;;;;5064695;28;20222;-78
2021/01/19 08:59:24;;;;;;;0.77;0.77;;;;;;;;;;5059282;28;20207;-77
2021/01/19 09:01:53;;;;;;;0.20;0.20;;;;;;;;;;5061968;28;20203;-75
2021/01/19 09:04:23;;;;;;;0.23;0.23;;;;;;;;;;5043839;28;20200;-76
2021/01/19 09:06:50;;;;;;;0.20;0.20;;;;;;;;;;5058017;28;20200;-76
2021/01/19 09:09:20;;;;;;;0.47;0.47;;;;;;;;;;5048944;28;20238;-78
2021/01/19 09:11:46;;;;;;;1.57;1.57;;;;;;;;;;5061329;28;20267;-79
2021/01/19 09:14:14;;;;;;;0.20;0.20;;;;;;;;;;5054945;28;20472;-78
2021/01/19 09:16:40;;;;;;;0.20;0.20;;;;;;;;;;5054568;28;20246;-70
2021/01/19 09:19:08;;;;;;;0.50;0.50;;;;;;;;;;5058605;28;20196;-70
2021/01/19 09:21:37;;;;;;;0.47;0.47;;;;;;;;;;5074510;28;20481;-74
2021/01/19 09:24:03;;;;;;;0.30;0.30;;;;;;;;;;5061358;28;20207;-76
2021/01/19 09:26:35;;;;;;;2.53;1.07;;;;;;;;;;5044089;28;20255;-76
2021/01/19 09:29:05;;;;;;;0.50;0.50;;;;;;;;;;5062314;28;20223;-75
2021/01/19 09:31:35;;;;;;;0.30;0.30;;;;;;;;;;5052494;28;20212;-77
2021/01/19 09:34:01;;;;;;;0.30;0.30;;;;;;;;;;5062953;28;20224;-76
2021/01/19 09:36:29;;;;;;;0.20;0.20;;;;;;;;;;5062432;28;20287;-74
2021/01/19 09:38:58;;;;;;;0.20;0.20;;;;;;;;;;5067377;28;20506;-78
2021/01/19 09:41:25;;;;;;;0.20;0.20;;;;;;;;;;5066333;28;20246;-75
2021/01/19 09:43:52;;;;;;;0.20;0.20;;;;;;;;;;5048775;28;20270;-76
2021/01/19 09:46:22;;;;;;;0.20;0.20;;;;;;;;;;5060019;28;20211;-75
2021/01/19 09:48:49;;;;;;;0.27;0.27;;;;;;;;;;5056307;28;20428;-75
2021/01/19 09:51:24;;;;;;;1.90;1.87;;;;;;;;;;5042641;28;20208;-76
2021/01/19 09:53:54;;;;;;;0.20;0.20;;;;;;;;;;5068356;28;20199;-76
2021/01/19 09:56:21;;;;;;;0.40;0.40;;;;;;;;;;5067360;28;20266;-75
2021/01/19 09:58:47;;;;;;;0.20;0.20;;;;;;;;;;5067585;28;20192;-76
2021/01/19 10:01:22;;;;;;;0.20;0.20;;;;;;;;;;5065061;28;20200;-77
2021/01/19 10:03:49;;;;;;;0.20;0.20;;;;;;;;;;5062155;28;20281;-69
2021/01/19 10:06:19;;;;;;;0.20;0.20;;;;;;;;;;5042933;28;20226;-75
2021/01/19 10:08:50;;;;;;;0.20;0.20;;;;;;;;;;5060727;28;20208;-75
2021/01/19 10:11:28;;;;;;;0.20;0.20;;;;;;;;;;5058985;28;20487;-75
2021/01/19 10:13:55;;;;;;;0.20;0.20;;;;;;;;;;5084186;28;20199;-75
2021/01/19 10:16:27;;;;;;;1.70;1.37;;;;;;;;;;5048903;28;20200;-74
2021/01/19 10:18:53;;;;;;;0.57;0.57;;;;;;;;;;5059474;28;20391;-77
2021/01/19 10:21:27;;;;;;;0.20;0.20;;;;;;;;;;5061384;28;20376;-76
2021/01/19 10:23:54;;;;;;;0.20;0.20;;;;;;;;;;5059166;28;20366;-76
2021/01/19 10:26:27;;;;;;;0.20;0.20;;;;;;;;;;5048434;28;20191;-76
2021/01/19 10:28:56;;;;;;;0.20;0.20;;;;;;;;;;5058567;28;20440;-76
2021/01/19 10:31:24;;;;;;;0.30;0.30;;;;;;;;;;5049430;28;20402;-76
2021/01/19 10:33:57;;;;;;;0.20;0.20;;;;;;;;;;5061024;28;20218;-77
2021/01/19 10:36:25;;;;;;;0.20;0.20;;;;;;;;;;5087314;28;20278;-75
2021/01/19 10:38:51;;;;;;;0.20;0.20;;;;;;;;;;5055961;28;20214;-76
2021/01/19 10:41:24;;;;;;;0.43;0.43;;;;;;;;;;5062143;28;20351;-76
2021/01/19 10:43:51;;;;;;;1.47;1.17;;;;;;;;;;5070487;28;20244;-75
2021/01/19 10:46:20;;;;;;;0.67;0.30;;;;;;;;;;5054275;28;20230;-76
2021/01/19 10:48:47;;;;;;;0.43;0.43;;;;;;;;;;5063784;28;20274;-77
2021/01/19 10:51:13;;;;;;;0.80;0.80;;;;;;;;;;5065443;28;20481;-75
2021/01/19 10:53:41;;;;;;;0.50;0.50;;;;;;;;;;5056691;28;20402;-74
2021/01/19 10:56:13;;;;;;;0.20;0.20;;;;;;;;;;5083349;28;20215;-77
2021/01/19 10:58:39;;;;;;;0.67;0.67;;;;;;;;;;5070491;28;20219;-77
2021/01/19 11:01:06;;;;;;;0.20;0.20;;;;;;;;;;5071220;28;20215;-75
2021/01/19 11:03:34;;;;;;;1.13;1.03;;;;;;;;;;5039808;28;20250;-75
2021/01/19 11:06:00;;;;;;;2.47;0.77;;;;;;;;;;5047292;28;20495;-73
2021/01/19 11:08:27;;;;;;;0.30;0.30;;;;;;;;;;5056843;28;20371;-75
2021/01/19 11:10:53;;;;;;;2.57;2.13;;;;;;;;;;5061974;28;20220;-75
2021/01/19 11:13:22;;;;;;;0.50;0.50;;;;;;;;;;5059497;28;20204;-75
2021/01/19 11:15:49;;;;;;;0.30;0.30;;;;;;;;;;5060444;28;20222;-75
2021/01/19 11:18:15;;;;;;;0.70;0.50;;;;;;;;;;5042410;28;20201;-76
2021/01/19 11:20:43;;;;;;;0.77;0.77;;;;;;;;;;5056506;28;20268;-75
2021/01/19 11:23:10;;;;;;;0.97;0.97;;;;;;;;;;5061873;28;20210;-73
2021/01/19 11:25:37;;;;;;;0.20;0.20;;;;;;;;;;5050898;28;20195;-74
2021/01/19 11:28:04;;;;;;;0.20;0.20;;;;;;;;;;5038106;28;20282;-76
2021/01/19 11:30:30;;;;;;;0.23;0.23;;;;;;;;;;5054718;28;20285;-74
2021/01/19 11:32:57;;;;;;;0.20;0.20;;;;;;;;;;5038447;28;20206;-73
2021/01/19 11:35:24;;;;;;;0.30;0.30;;;;;;;;;;5038103;28;20242;-74
2021/01/19 11:37:51;;;;;;;0.20;0.20;;;;;;;;;;5040430;28;20244;-75
2021/01/19 11:40:18;;;;;;;1.43;0.63;;;;;;;;;;5036304;28;20203;-76
2021/01/19 11:42:45;;;;;;;0.30;0.30;;;;;;;;;;5035606;28;20200;-77
2021/01/19 11:45:11;;;;;;;10.90;1.63;;;;;;;;;;5060343;28;20200;-77
2021/01/19 11:47:39;;;;;;;0.20;0.20;;;;;;;;;;5054383;28;20195;-75
2021/01/19 11:50:06;;;;;;;0.20;0.20;;;;;;;;;;5034968;28;20423;-73
2021/01/19 11:52:33;;;;;;;0.73;0.73;;;;;;;;;;5057379;28;20544;-75
2021/01/19 11:55:01;;;;;;;0.20;0.20;;;;;;;;;;5034685;28;20197;-72
2021/01/19 11:57:27;;;;;;;0.20;0.20;;;;;;;;;;5036182;28;20201;-74
2021/01/19 11:59:54;;;;;;;1.50;1.13;;;;;;;;;;5037303;28;20227;-73
2021/01/19 12:02:21;;;;;;;0.20;0.20;;;;;;;;;;5037708;28;20207;-72
2021/01/19 12:04:47;;;;;;;0.20;0.20;;;;;;;;;;5043208;28;20479;-73
2021/01/19 12:07:14;;;;;;;0.23;0.23;;;;;;;;;;5059436;28;20275;-74
2021/01/19 12:09:40;;;;;;;0.60;0.60;;;;;;;;;;5041664;28;20473;-74
2021/01/19 12:12:08;;;;;;;0.20;0.20;;;;;;;;;;5042488;28;20204;-72
2021/01/19 12:14:35;;;;;;;0.20;0.20;;;;;;;;;;5038826;28;20200;-73
2021/01/19 12:17:02;;;;;;;0.30;0.30;;;;;;;;;;5033231;28;20209;-71
2021/01/19 12:19:29;;;;;;;1.50;1.23;;;;;;;;;;5040098;28;20199;-73
2021/01/19 12:21:58;;;;;;;0.67;0.67;;;;;;;;;;5040076;28;20508;-72
2021/01/19 12:24:25;;;;;;;0.90;0.90;;;;;;;;;;5042191;28;20212;-74
2021/01/19 12:26:53;;;;;;;0.43;0.43;;;;;;;;;;5061067;28;20453;-73
2021/01/19 12:29:24;;;;;;;0.20;0.20;;;;;;;;;;5056597;28;20244;-73
2021/01/19 12:31:51;;;;;;;0.30;0.30;;;;;;;;;;5050560;28;20211;-73
2021/01/19 12:34:18;;;;;;;0.60;0.60;;;;;;;;;;5053639;28;20205;-75
2021/01/19 12:36:45;;;;;;;1.07;1.07;;;;;;;;;;5055362;28;20518;-75
2021/01/19 12:39:12;;;;;;;0.30;0.30;;;;;;;;;;5037735;28;20197;-77
2021/01/19 12:41:38;;;;;;;0.23;0.23;;;;;;;;;;5031185;28;20279;-75
2021/01/19 12:44:05;;;;;;;1.77;1.13;;;;;;;;;;5056336;28;20273;-74
2021/01/19 12:46:34;;;;;;;0.40;0.40;;;;;;;;;;5037219;28;20217;-75
2021/01/19 12:49:00;;;;;;;0.20;0.20;;;;;;;;;;5040414;28;20211;-76
2021/01/19 12:51:27;;;;;;;0.30;0.30;;;;;;;;;;5058126;28;20200;-75
2021/01/19 12:53:54;;;;;;;0.40;0.40;;;;;;;;;;5037654;28;20204;-75
2021/01/19 12:56:21;;;;;;;0.30;0.30;;;;;;;;;;5056143;28;20230;-75
2021/01/19 12:58:48;;;;;;;0.30;0.30;;;;;;;;;;5053496;28;20275;-75
2021/01/19 13:01:14;;;;;;;0.60;0.60;;;;;;;;;;5056228;28;20200;-76
2021/01/19 13:03:42;;;;;;;0.27;0.27;;;;;;;;;;5057902;28;20218;-73
2021/01/19 13:06:08;;;;;;;0.30;0.30;;;;;;;;;;5038309;28;20690;-77
2021/01/19 13:08:35;;;;;;;0.20;0.20;;;;;;;;;;5054445;28;20199;-74
2021/01/19 13:11:01;;;;;;;0.30;0.30;;;;;;;;;;5053086;28;20215;-77
2021/01/19 13:13:28;;;;;;;0.30;0.30;;;;;;;;;;5059587;28;20551;-75
2021/01/19 13:15:55;;;;;;;0.30;0.30;;;;;;;;;;5056356;28;20210;-75
2021/01/19 13:18:22;;;;;;;0.20;0.20;;;;;;;;;;5043355;28;20235;-75
2021/01/19 13:20:50;;;;;;;0.30;0.30;;;;;;;;;;5031265;28;20482;-72
2021/01/19 13:23:16;;;;;;;0.40;0.40;;;;;;;;;;5052175;28;20652;-74
2021/01/19 13:25:43;;;;;;;0.20;0.20;;;;;;;;;;5034003;28;20200;-75
2021/01/19 13:28:11;;;;;;;4.87;4.63;;;;;;;;;;5055393;28;20235;-76
2021/01/19 13:30:37;;;;;;;0.37;0.37;;;;;;;;;;5036890;28;20219;-75
2021/01/19 13:33:04;;;;;;;1.83;1.73;;;;;;;;;;5031861;28;20204;-75
2021/01/19 13:35:31;;;;;;;0.43;0.43;;;;;;;;;;5031485;28;20199;-74
2021/01/19 13:37:59;;;;;;;2.30;2.10;;;;;;;;;;5037677;28;20453;-75
2021/01/19 13:40:26;;;;;;;0.20;0.20;;;;;;;;;;5039497;28;20200;-74
2021/01/19 13:42:53;;;;;;;0.20;0.20;;;;;;;;;;5040785;28;20499;-74
2021/01/19 13:45:21;;;;;;;0.30;0.30;;;;;;;;;;5037660;28;20200;-75
2021/01/19 13:47:48;;;;;;;0.40;0.40;;;;;;;;;;5057992;28;20235;-75
2021/01/19 13:50:15;;;;;;;0.20;0.20;;;;;;;;;;5038008;28;20486;-75
2021/01/19 13:52:42;;;;;;;0.30;0.30;;;;;;;;;;5036854;28;20271;-75
2021/01/19 13:55:11;;;;;;;4.70;1.23;;;;;;;;;;5053927;28;20507;-74
2021/01/19 13:57:38;;;;;;;1.33;0.73;;;;;;;;;;5034953;28;20210;-73
2021/01/19 14:00:05;;;;;;;0.70;0.70;;;;;;;;;;5034450;28;20220;-70
2021/01/19 14:02:32;;;;;;;0.30;0.30;;;;;;;;;;5054679;28;20215;-73
2021/01/19 14:04:59;;;;;;;0.30;0.30;;;;;;;;;;5035776;28;20290;-73
2021/01/19 14:07:26;;;;;;;0.77;0.40;;;;;;;;;;5038944;28;20234;-75
2021/01/19 14:09:52;;;;;;;0.80;0.80;;;;;;;;;;5033616;28;20540;-73
2021/01/19 14:12:20;;;;;;;0.30;0.30;;;;;;;;;;5060714;28;20200;-75
2021/01/19 14:14:47;;;;;;;0.20;0.20;;;;;;;;;;5043623;28;20200;-74
2021/01/19 14:17:14;;;;;;;0.70;0.70;;;;;;;;;;5041126;28;20239;-74
2021/01/19 14:19:41;;;;;;;0.20;0.20;;;;;;;;;;5036290;28;20196;-75
2021/01/19 14:22:07;;;;;;;0.20;0.20;;;;;;;;;;5060691;28;20208;-75
2021/01/19 14:24:34;;;;;;;0.20;0.20;;;;;;;;;;5047508;28;20205;-73
2021/01/19 14:27:01;;;;;;;0.30;0.30;;;;;;;;;;5041246;28;20542;-74
2021/01/19 14:29:29;;;;;;;0.20;0.20;;;;;;;;;;5041409;28;20394;-73
2021/01/19 14:31:56;;;;;;;0.30;0.30;;;;;;;;;;5038311;28;20211;-73
2021/01/19 14:34:22;;;;;;;0.20;0.20;;;;;;;;;;5048428;28;20587;-75
2021/01/19 14:36:50;;;;;;;0.20;0.20;;;;;;;;;;5056910;28;20234;-74
2021/01/19 14:39:17;;;;;;;0.47;0.47;;;;;;;;;;5040858;28;20210;-74
2021/01/19 14:41:44;;;;;;;0.30;0.30;;;;;;;;;;5062073;28;20226;-73
2021/01/19 14:44:11;;;;;;;0.30;0.30;;;;;;;;;;5044764;28;20199;-75
2021/01/19 14:46:38;;;;;;;0.23;0.23;;;;;;;;;;5059711;28;20202;-74
2021/01/19 14:49:06;;;;;;;0.20;0.20;;;;;;;;;;5059444;28;20271;-74